createdAt,value
2023-03-29T00:03:19.977Z,35.06
2023-03-29T00:07:19.817Z,34.01
2023-03-29T00:11:19.827Z,36.80
2023-03-29T00:15:19.951Z,35.06
2023-03-29T00:19:19.997Z,29.10
2023-03-29T00:23:20.302Z,41.90
2023-03-29T00:27:20.347Z,38.57
2023-03-29T00:31:20.381Z,32.97
2023-03-29T00:35:20.402Z,40.21
2023-03-29T00:39:20.416Z,36.77
2023-03-29T00:43:20.838Z,39.86
2023-03-29T00:47:20.809Z,35.96
2023-03-29T00:51:20.711Z,30.11
2023-03-29T00:55:21.316Z,39.95
2023-03-29T00:59:20.886Z,40.62
2023-03-29T01:03:21.597Z,34.95
2023-03-29T01:07:21.421Z,40.92
2023-03-29T01:11:21.130Z,37.99
2023-03-29T01:15:21.415Z,39.66
2023-03-29T01:19:21.386Z,40.66
2023-03-29T01:23:21.869Z,33.25
2023-03-29T01:27:21.876Z,35.72
2023-03-29T01:31:21.607Z,33.80
2023-03-29T01:35:21.858Z,32.34
2023-03-29T01:39:21.738Z,36.05
2023-03-29T01:43:21.793Z,34.99
2023-03-29T01:47:22.376Z,42.60
2023-03-29T01:51:21.983Z,40.81
2023-03-29T01:55:22.358Z,33.67
2023-03-29T01:59:22.225Z,37.86
2023-03-29T02:03:22.536Z,26.48
2023-03-29T02:07:22.430Z,36.63
2023-03-29T02:11:22.506Z,40.48
2023-03-29T02:15:22.917Z,30.13
2023-03-29T02:19:22.671Z,39.00
2023-03-29T02:23:22.872Z,33.39
2023-03-29T02:27:22.898Z,42.54
2023-03-29T02:31:23.382Z,36.20
2023-03-29T02:35:23.402Z,36.27
2023-03-29T02:39:23.374Z,37.46
2023-03-29T02:43:25.281Z,36.41
2023-03-29T02:47:23.254Z,30.02
2023-03-29T02:51:23.405Z,25.71
2023-03-29T02:55:23.393Z,27.12
2023-03-29T02:59:23.392Z,35.95
2023-03-29T03:03:23.213Z,32.42
2023-03-29T03:07:23.020Z,29.40
2023-03-29T03:11:22.995Z,29.69
2023-03-29T03:15:23.411Z,32.70
2023-03-29T03:19:23.395Z,38.66
2023-03-29T03:23:23.384Z,35.01
2023-03-29T03:27:22.835Z,31.26
2023-03-29T03:31:22.937Z,35.92
2023-03-29T03:35:22.891Z,38.90
2023-03-29T03:39:22.912Z,37.78
2023-03-29T03:43:22.715Z,38.59
2023-03-29T03:47:23.028Z,37.40
2023-03-29T03:51:22.887Z,34.15
2023-03-29T03:55:22.933Z,37.13
2023-03-29T03:59:22.920Z,34.65
2023-03-29T04:03:22.887Z,41.53
2023-03-29T04:07:22.932Z,37.43
2023-03-29T04:11:22.887Z,37.33
2023-03-29T04:15:23.428Z,32.15
2023-03-29T04:19:23.384Z,40.18
2023-03-29T04:23:23.157Z,39.03
2023-03-29T04:27:23.432Z,40.67
2023-03-29T04:31:23.433Z,41.91
2023-03-29T04:35:24.448Z,41.18
2023-03-29T04:39:23.923Z,35.25
2023-03-29T04:43:23.679Z,35.35
2023-03-29T04:47:23.945Z,37.81
2023-03-29T04:51:23.925Z,35.36
2023-03-29T04:55:23.896Z,33.24
2023-03-29T04:59:23.998Z,37.62
2023-03-29T05:03:24.094Z,43.28
2023-03-29T05:07:24.422Z,44.02
2023-03-29T05:11:31.453Z,42.27
2023-03-29T05:15:24.465Z,46.07
2023-03-29T05:19:24.159Z,43.32
2023-03-29T05:23:24.459Z,43.09
2023-03-29T05:27:24.454Z,50.44
2023-03-29T05:31:24.483Z,44.42
2023-03-29T05:35:24.033Z,40.31
2023-03-29T05:39:23.963Z,36.32
2023-03-29T05:43:24.499Z,50.87
2023-03-29T05:47:23.982Z,56.97
2023-03-29T05:51:24.543Z,74.76
2023-03-29T05:55:24.478Z,77.35
2023-03-29T05:59:24.201Z,81.28
2023-03-29T06:03:24.523Z,89.07
2023-03-29T06:07:24.472Z,90.61
2023-03-29T06:11:24.486Z,92.11
2023-03-29T06:15:24.537Z,93.38
2023-03-29T06:19:24.599Z,87.16
2023-03-29T06:23:24.975Z,93.09
2023-03-29T06:27:24.977Z,92.34
2023-03-29T06:31:25.035Z,84.07
2023-03-29T06:35:24.870Z,91.42
2023-03-29T06:39:24.960Z,92.47
2023-03-29T06:43:25.479Z,82.72
2023-03-29T06:47:25.738Z,86.69
2023-03-29T06:51:25.499Z,80.08
2023-03-29T06:55:25.220Z,86.44
2023-03-29T06:59:25.983Z,25.40
2023-03-29T07:03:25.473Z,60.10
2023-03-29T07:07:26.001Z,56.40
2023-03-29T07:11:25.649Z,57.56
2023-03-29T07:15:25.989Z,57.82
2023-03-29T07:19:26.019Z,52.66
2023-03-29T07:23:26.480Z,38.23
2023-03-29T07:27:26.526Z,25.42
2023-03-29T07:31:26.275Z,34.65
2023-03-29T07:35:26.500Z,25.83
2023-03-29T07:39:26.973Z,29.74
2023-03-29T07:43:27.022Z,26.59
2023-03-29T07:47:27.018Z,34.41
2023-03-29T07:51:26.763Z,95.88
2023-03-29T07:55:27.001Z,153.02
2023-03-29T07:59:26.989Z,252.50
2023-03-29T08:03:27.540Z,260.90
2023-03-29T08:07:27.137Z,252.46
2023-03-29T08:11:27.515Z,249.81
2023-03-29T08:15:27.507Z,250.19
2023-03-29T08:19:28.010Z,250.44
2023-03-29T08:23:28.016Z,249.91
2023-03-29T08:27:27.733Z,250.00
2023-03-29T08:31:28.067Z,248.81
2023-03-29T08:35:28.025Z,247.83
2023-03-29T08:39:28.527Z,248.94
2023-03-29T08:43:28.523Z,189.10
2023-03-29T08:47:28.510Z,191.10
2023-03-29T08:51:28.535Z,185.84
2023-03-29T08:55:29.033Z,188.38
2023-03-29T08:59:28.842Z,142.04
2023-03-29T09:03:29.102Z,99.34
2023-03-29T09:07:29.110Z,126.98
2023-03-29T09:11:29.543Z,131.66
2023-03-29T09:15:29.567Z,139.99
2023-03-29T09:19:29.512Z,148.18
2023-03-29T09:23:30.054Z,154.66
2023-03-29T09:27:29.792Z,159.94
2023-03-29T09:31:30.132Z,164.50
2023-03-29T09:35:30.084Z,169.20
2023-03-29T09:39:30.519Z,174.47
2023-03-29T09:43:30.220Z,174.81
2023-03-29T09:47:30.583Z,182.08
2023-03-29T09:51:31.041Z,183.62
2023-03-29T09:55:30.820Z,179.34
2023-03-29T09:59:30.932Z,177.75
2023-03-29T10:03:31.188Z,173.77
2023-03-29T10:07:31.276Z,169.79
2023-03-29T10:11:31.398Z,168.28
2023-03-29T10:15:31.430Z,162.90
2023-03-29T10:19:31.452Z,158.42
2023-03-29T10:23:31.489Z,155.83
2023-03-29T10:27:31.593Z,155.58
2023-03-29T10:31:31.680Z,151.55
2023-03-29T10:35:31.743Z,146.49
2023-03-29T10:39:32.076Z,145.26
2023-03-29T10:43:31.830Z,142.98
2023-03-29T10:47:32.115Z,143.83
2023-03-29T10:51:32.084Z,141.02
2023-03-29T10:55:32.563Z,137.78
2023-03-29T10:59:32.127Z,136.39
2023-03-29T11:03:32.365Z,136.60
2023-03-29T11:07:32.619Z,134.49
2023-03-29T11:11:32.366Z,134.28
2023-03-29T11:15:32.605Z,134.17
2023-03-29T11:19:32.516Z,132.71
2023-03-29T11:23:33.120Z,130.43
2023-03-29T11:27:32.698Z,128.31
2023-03-29T11:31:32.921Z,125.73
2023-03-29T11:35:32.838Z,125.19
2023-03-29T11:39:32.880Z,123.71
2023-03-29T11:43:32.989Z,124.15
2023-03-29T11:47:33.131Z,122.94
2023-03-29T11:51:33.142Z,117.70
2023-03-29T11:55:33.262Z,114.67
2023-03-29T11:59:33.309Z,114.99
2023-03-29T12:03:33.448Z,115.93
2023-03-29T12:07:33.601Z,112.01
2023-03-29T12:11:33.589Z,111.65
2023-03-29T12:15:33.681Z,110.39
2023-03-29T12:19:34.289Z,110.27
2023-03-29T12:23:34.093Z,109.85
2023-03-29T12:27:34.106Z,110.42
2023-03-29T12:31:34.043Z,108.88
2023-03-29T12:35:34.163Z,108.84
2023-03-29T12:39:34.219Z,110.54
2023-03-29T12:43:34.332Z,106.19
2023-03-29T12:47:34.414Z,107.77
2023-03-29T12:51:34.500Z,107.85
2023-03-29T12:55:34.541Z,105.09
2023-03-29T12:59:34.651Z,101.69
2023-03-29T13:03:42.152Z,104.36
2023-03-29T13:07:34.751Z,105.46
2023-03-29T13:11:34.698Z,106.14
2023-03-29T13:15:35.229Z,108.16
2023-03-29T13:19:34.615Z,107.28
2023-03-29T13:23:34.651Z,106.32
2023-03-29T13:27:34.558Z,105.74
2023-03-29T13:31:34.564Z,102.29
2023-03-29T13:35:34.714Z,105.74
2023-03-29T13:39:34.804Z,102.69
2023-03-29T13:43:35.154Z,102.61
2023-03-29T13:47:34.977Z,97.52
2023-03-29T13:51:34.968Z,102.69
2023-03-29T13:55:37.657Z,95.48
2023-03-29T13:59:35.076Z,96.64
2023-03-29T14:03:35.059Z,96.68
2023-03-29T14:07:34.979Z,96.17
2023-03-29T14:11:34.934Z,96.11
2023-03-29T14:15:34.909Z,94.40
2023-03-29T14:19:34.888Z,95.80
2023-03-29T14:23:34.852Z,95.89
2023-03-29T14:27:34.810Z,92.99
2023-03-29T14:31:35.243Z,93.15
2023-03-29T14:35:34.912Z,93.26
2023-03-29T14:39:35.164Z,94.32
2023-03-29T14:43:35.186Z,88.73
2023-03-29T14:47:34.626Z,90.37
2023-03-29T14:51:34.685Z,92.89
2023-03-29T14:55:34.570Z,89.17
2023-03-29T14:59:34.679Z,82.66
2023-03-29T15:03:34.898Z,88.10
2023-03-29T15:07:34.509Z,83.89
2023-03-29T15:11:34.730Z,85.96
2023-03-29T15:15:35.211Z,86.11
2023-03-29T15:19:34.875Z,85.72
2023-03-29T15:23:35.167Z,81.47
2023-03-29T15:27:35.076Z,80.14
2023-03-29T15:31:35.179Z,82.29
2023-03-29T15:35:35.762Z,82.11
2023-03-29T15:39:35.364Z,84.24
2023-03-29T15:43:35.676Z,81.15
2023-03-29T15:47:35.606Z,83.68
2023-03-29T15:51:35.664Z,80.71
2023-03-29T15:55:36.184Z,84.23
2023-03-29T15:59:36.222Z,81.90
2023-03-29T16:03:36.205Z,79.94
2023-03-29T16:07:36.105Z,79.15
2023-03-29T16:11:36.262Z,79.52
2023-03-29T16:15:36.279Z,81.56
2023-03-29T16:19:36.423Z,82.28
2023-03-29T16:23:36.536Z,80.35
2023-03-29T16:27:36.609Z,81.26
2023-03-29T16:31:36.743Z,76.05
2023-03-29T16:35:36.846Z,78.91
2023-03-29T16:39:36.931Z,79.95
2023-03-29T16:43:37.035Z,77.12
2023-03-29T16:47:37.133Z,77.71
2023-03-29T16:51:37.706Z,75.28
2023-03-29T16:55:37.356Z,78.35
2023-03-29T16:59:37.714Z,78.43
2023-03-29T17:03:37.558Z,73.14
2023-03-29T17:07:37.790Z,77.86
2023-03-29T17:11:37.878Z,76.30
2023-03-29T17:15:39.664Z,71.99
2023-03-29T17:19:37.979Z,75.73
2023-03-29T17:23:38.103Z,74.11
2023-03-29T17:27:38.233Z,74.70
2023-03-29T17:31:38.425Z,72.79
2023-03-29T17:35:38.713Z,73.49
2023-03-29T17:39:38.516Z,70.21
2023-03-29T17:43:38.655Z,73.99
2023-03-29T17:47:39.309Z,74.34
2023-03-29T17:51:38.909Z,70.86
2023-03-29T17:55:39.233Z,73.37
2023-03-29T17:59:39.239Z,73.36
2023-03-29T18:03:39.185Z,74.74
2023-03-29T18:07:39.737Z,72.57
2023-03-29T18:11:39.761Z,72.50
2023-03-29T18:15:39.770Z,72.84
2023-03-29T18:19:39.645Z,72.33
2023-03-29T18:23:39.767Z,72.83
2023-03-29T18:27:40.273Z,71.60
2023-03-29T18:31:40.784Z,72.45
2023-03-29T18:35:40.313Z,70.65
2023-03-29T18:39:40.230Z,71.13
2023-03-29T18:43:40.753Z,71.81
2023-03-29T18:47:40.770Z,71.44
2023-03-29T18:51:40.758Z,69.53
2023-03-29T18:55:40.795Z,69.30
2023-03-29T18:59:40.799Z,69.55
2023-03-29T19:03:41.149Z,69.59
2023-03-29T19:07:41.287Z,70.27
2023-03-29T19:11:41.281Z,69.06
2023-03-29T19:15:41.830Z,65.63
2023-03-29T19:19:41.410Z,68.39
2023-03-29T19:23:41.804Z,65.88
2023-03-29T19:27:41.797Z,68.95
2023-03-29T19:31:41.782Z,68.94
2023-03-29T19:35:42.317Z,64.93
2023-03-29T19:39:41.950Z,67.41
2023-03-29T19:43:42.052Z,68.38
2023-03-29T19:47:42.943Z,66.51
2023-03-29T19:51:42.298Z,68.27
2023-03-29T19:55:42.791Z,66.34
2023-03-29T19:59:42.522Z,67.03
2023-03-29T20:03:43.732Z,67.55
2023-03-29T20:07:42.786Z,65.07
2023-03-29T20:11:43.294Z,68.22
2023-03-29T20:15:42.936Z,65.64
2023-03-29T20:19:43.328Z,62.38
2023-03-29T20:23:43.299Z,65.48
2023-03-29T20:27:43.770Z,63.34
2023-03-29T20:31:43.823Z,65.14
2023-03-29T20:35:43.540Z,64.93
2023-03-29T20:39:43.789Z,59.60
2023-03-29T20:43:43.799Z,61.65
2023-03-29T20:47:43.931Z,59.08
2023-03-29T20:51:44.301Z,65.12
2023-03-29T20:55:44.130Z,62.47
2023-03-29T20:59:44.273Z,62.77
2023-03-29T21:03:44.511Z,63.77
2023-03-29T21:07:44.827Z,62.05
2023-03-29T21:11:44.812Z,58.79
2023-03-29T21:15:44.787Z,60.68
2023-03-29T21:19:44.896Z,61.11
2023-03-29T21:23:45.312Z,60.23
2023-03-29T21:27:45.160Z,62.52
2023-03-29T21:31:45.382Z,62.23
2023-03-29T21:35:45.409Z,62.03
2023-03-29T21:39:45.513Z,62.46
2023-03-29T21:43:45.815Z,56.77
2023-03-29T21:47:45.845Z,61.52
2023-03-29T21:51:46.351Z,61.00
2023-03-29T21:55:45.973Z,58.52
2023-03-29T21:59:46.322Z,59.73
2023-03-29T22:03:46.192Z,52.10
2023-03-29T22:07:46.831Z,57.86
2023-03-29T22:11:46.488Z,58.83
2023-03-29T22:15:46.807Z,58.75
2023-03-29T22:19:46.739Z,52.73
2023-03-29T22:23:47.350Z,54.81
2023-03-29T22:27:46.977Z,55.19
2023-03-29T22:31:47.113Z,56.34
2023-03-29T22:35:47.381Z,52.03
2023-03-29T22:39:47.277Z,56.45
2023-03-29T22:43:47.884Z,53.58
2023-03-29T22:47:47.894Z,56.43
2023-03-29T22:51:47.667Z,55.40
2023-03-29T22:55:47.851Z,56.94
2023-03-29T22:59:48.314Z,53.42
2023-03-29T23:03:47.972Z,57.76
2023-03-29T23:07:48.340Z,56.17
2023-03-29T23:11:48.224Z,53.18
2023-03-29T23:15:48.863Z,53.78
2023-03-29T23:19:48.875Z,54.33
2023-03-29T23:23:48.587Z,52.35
2023-03-29T23:27:48.839Z,52.83
2023-03-29T23:31:48.875Z,53.59
2023-03-29T23:35:49.390Z,55.75
2023-03-29T23:39:49.347Z,50.13
2023-03-29T23:43:49.137Z,51.86
2023-03-29T23:47:49.405Z,53.62
2023-03-29T23:51:49.334Z,53.37
2023-03-29T23:55:49.976Z,52.12
2023-03-29T23:59:49.858Z,54.00
